Time;durP1;ratioP1;P1;durP2;ratioP2;P2;SDS_P1;SDS_P2;PMS_P1;PMS_P2;Temp;Humidity;BMP_temperature;BMP_pressure;BME280_temperature;BME280_humidity;BME280_pressure;Samples;Min_cycle;Max_cycle;Signal;HPM_P1;HPM_P2
2022/08/04 00:01:30;;;;;;;6.65;3.28;;;;;;;;;;5076656;28;20074;-72
2022/08/04 00:04:26;;;;;;;5.32;2.95;;;;;;;;;;5076141;28;20024;-72
2022/08/04 00:07:15;;;;;;;5.13;2.97;;;;;;;;;;5076157;28;20051;-72
2022/08/04 00:09:48;;;;;;;3.78;3.03;;;;;;;;;;5075668;28;20035;-72
2022/08/04 00:12:15;;;;;;;5.15;3.38;;;;;;;;;;5075829;28;20482;-72
2022/08/04 00:14:48;;;;;;;7.50;3.10;;;;;;;;;;5057845;28;20071;-72
2022/08/04 00:17:19;;;;;;;5.90;3.40;;;;;;;;;;5076102;28;20032;-72
2022/08/04 00:19:47;;;;;;;5.57;3.42;;;;;;;;;;5076105;28;20032;-72
2022/08/04 00:22:12;;;;;;;5.40;3.42;;;;;;;;;;5075353;28;20103;-72
2022/08/04 00:24:38;;;;;;;4.90;3.47;;;;;;;;;;5057403;28;20463;-72
2022/08/04 00:27:05;;;;;;;9.13;3.58;;;;;;;;;;5057469;28;20028;-72
2022/08/04 00:29:32;;;;;;;5.60;3.60;;;;;;;;;;5075456;28;20043;-72
2022/08/04 00:31:58;;;;;;;5.45;3.78;;;;;;;;;;5057380;28;20024;-71
2022/08/04 00:34:25;;;;;;;5.68;3.53;;;;;;;;;;5075623;28;20029;-71
2022/08/04 00:36:52;;;;;;;9.43;3.65;;;;;;;;;;5057250;28;20031;-71
2022/08/04 00:39:18;;;;;;;6.68;3.50;;;;;;;;;;5075465;28;20385;-72
2022/08/04 00:41:59;;;;;;;7.53;3.70;;;;;;;;;;5075035;28;20031;-71
2022/08/04 00:44:56;;;;;;;6.85;3.60;;;;;;;;;;5057222;28;20021;-72
2022/08/04 00:47:41;;;;;;;4.95;3.55;;;;;;;;;;5075432;28;20033;-71
2022/08/04 00:50:08;;;;;;;7.47;3.47;;;;;;;;;;5075522;28;20073;-72
2022/08/04 00:52:46;;;;;;;6.38;3.45;;;;;;;;;;5075149;28;20036;-72
2022/08/04 00:55:21;;;;;;;4.00;3.20;;;;;;;;;;5075507;28;20107;-73
2022/08/04 00:58:11;;;;;;;5.43;3.40;;;;;;;;;;5075584;28;20474;-72
2022/08/04 01:01:02;;;;;;;6.65;3.33;;;;;;;;;;5057759;28;20024;-72
2022/08/04 01:03:48;;;;;;;6.47;3.33;;;;;;;;;;5076074;28;20039;-72
2022/08/04 01:06:33;;;;;;;5.80;3.13;;;;;;;;;;5075926;28;20036;-72
2022/08/04 01:09:32;;;;;;;6.93;3.85;;;;;;;;;;5075907;28;20024;-73
2022/08/04 01:12:21;;;;;;;10.77;3.50;;;;;;;;;;5076138;28;20021;-73
2022/08/04 01:15:16;;;;;;;6.80;3.50;;;;;;;;;;5075493;28;20031;-73
2022/08/04 01:18:20;;;;;;;4.88;3.33;;;;;;;;;;5075728;28;20100;-72
2022/08/04 01:21:23;;;;;;;6.53;3.80;;;;;;;;;;5034485;28;20085;-73
2022/08/04 01:23:52;;;;;;;4.03;3.30;;;;;;;;;;5075609;28;20035;-71
2022/08/04 01:26:39;;;;;;;4.97;3.80;;;;;;;;;;5075822;28;20029;-72
2022/08/04 01:29:08;;;;;;;5.68;3.58;;;;;;;;;;5075896;28;20086;-72
2022/08/04 01:31:41;;;;;;;6.07;3.55;;;;;;;;;;5078478;28;20033;-73
2022/08/04 01:34:10;;;;;;;5.40;3.92;;;;;;;;;;5060979;28;20393;-72
2022/08/04 01:36:41;;;;;;;7.15;3.63;;;;;;;;;;5078498;28;20496;-71
2022/08/04 01:41:52;;;;;;;;;;;;;;;;;;5078467;28;20554;-72
2022/08/04 01:44:17;;;;;;;4.88;3.53;;;;;;;;;;5078121;28;19908;-72
2022/08/04 01:46:45;;;;;;;5.90;3.53;;;;;;;;;;5077230;28;20115;-72
2022/08/04 01:49:11;;;;;;;5.95;3.80;;;;;;;;;;5074430;28;20024;-72
2022/08/04 01:51:38;;;;;;;7.22;3.60;;;;;;;;;;5073903;28;20012;-72
2022/08/04 01:54:05;;;;;;;6.78;3.60;;;;;;;;;;5074073;28;20032;-72
2022/08/04 01:56:30;;;;;;;5.32;3.55;;;;;;;;;;5073943;28;20028;-71
2022/08/04 01:59:00;;;;;;;4.83;3.47;;;;;;;;;;5055917;28;20103;-72
2022/08/04 02:01:25;;;;;;;5.00;4.00;;;;;;;;;;5073630;28;20646;-71
2022/08/04 02:03:50;;;;;;;6.63;3.88;;;;;;;;;;5073592;28;20028;-72
2022/08/04 02:06:30;;;;;;;8.27;3.73;;;;;;;;;;5073598;28;20103;-71
2022/08/04 02:09:15;;;;;;;4.28;3.45;;;;;;;;;;5073670;28;20265;-72
2022/08/04 02:11:46;;;;;;;8.07;3.83;;;;;;;;;;5073485;28;20020;-72
2022/08/04 02:14:41;;;;;;;7.13;4.13;;;;;;;;;;5073642;28;20075;-71
2022/08/04 02:17:24;;;;;;;4.95;3.67;;;;;;;;;;5073681;28;20119;-72
2022/08/04 02:20:03;;;;;;;10.02;3.97;;;;;;;;;;5073917;28;20456;-71
2022/08/04 02:22:32;;;;;;;7.47;3.47;;;;;;;;;;5073454;28;20027;-73
2022/08/04 02:25:05;;;;;;;4.43;3.40;;;;;;;;;;5073268;28;20029;-71
2022/08/04 02:27:42;;;;;;;5.05;3.67;;;;;;;;;;5073203;28;20031;-72
2022/08/04 02:30:07;;;;;;;4.70;3.40;;;;;;;;;;5073354;28;20036;-73
2022/08/04 02:32:38;;;;;;;6.43;3.90;;;;;;;;;;5073088;28;20040;-72
2022/08/04 02:35:13;;;;;;;5.47;3.38;;;;;;;;;;5073378;28;20032;-71
2022/08/04 02:37:46;;;;;;;4.60;3.55;;;;;;;;;;5073083;28;20028;-72
2022/08/04 02:40:11;;;;;;;6.45;3.60;;;;;;;;;;5073218;28;20055;-71
2022/08/04 02:42:37;;;;;;;6.63;3.70;;;;;;;;;;5072971;28;20450;-72
2022/08/04 02:45:04;;;;;;;6.57;3.45;;;;;;;;;;5073045;28;20032;-71
2022/08/04 02:47:30;;;;;;;5.47;3.30;;;;;;;;;;5073077;28;20493;-72
2022/08/04 02:49:57;;;;;;;4.85;3.65;;;;;;;;;;5055000;28;20078;-72
2022/08/04 02:52:24;;;;;;;3.92;3.50;;;;;;;;;;5054921;28;20111;-72
2022/08/04 02:54:55;;;;;;;7.47;3.90;;;;;;;;;;5073004;28;20481;-72
2022/08/04 02:57:25;;;;;;;5.82;3.75;;;;;;;;;;5072914;28;20066;-72
2022/08/04 03:00:13;;;;;;;6.25;3.63;;;;;;;;;;5072875;28;20032;-71
2022/08/04 03:02:53;;;;;;;9.02;3.45;;;;;;;;;;5072987;28;20061;-72
2022/08/04 03:05:21;;;;;;;6.25;3.92;;;;;;;;;;5073105;28;20035;-73
2022/08/04 03:08:24;;;;;;;8.30;3.60;;;;;;;;;;5072742;28;20440;-72
2022/08/04 03:11:11;;;;;;;8.30;3.80;;;;;;;;;;5073069;28;20086;-73
2022/08/04 03:13:59;;;;;;;5.57;3.65;;;;;;;;;;5073092;28;20036;-72
2022/08/04 03:17:13;;;;;;;7.97;4.10;;;;;;;;;;5072765;28;20069;-72
2022/08/04 03:19:59;;;;;;;5.20;3.47;;;;;;;;;;5073449;28;20131;-72
2022/08/04 03:22:55;;;;;;;5.70;3.40;;;;;;;;;;5072815;28;20052;-72
2022/08/04 03:25:48;;;;;;;4.95;3.53;;;;;;;;;;5072735;28;20075;-71
2022/08/04 03:28:27;;;;;;;8.43;3.70;;;;;;;;;;5072728;28;20039;-72
2022/08/04 03:31:29;;;;;;;4.82;3.50;;;;;;;;;;5072700;28;20031;-72
2022/08/04 03:34:31;;;;;;;7.22;3.15;;;;;;;;;;5072683;28;20190;-71
2022/08/04 03:37:17;;;;;;;7.07;3.70;;;;;;;;;;5072837;28;20466;-72
2022/08/04 03:40:21;;;;;;;7.47;3.47;;;;;;;;;;5075376;28;20035;-71
2022/08/04 03:43:02;;;;;;;5.22;3.47;;;;;;;;;;5074848;28;20536;-72
2022/08/04 03:46:04;;;;;;;7.35;3.83;;;;;;;;;;5076303;28;20025;-72
2022/08/04 03:49:09;;;;;;;10.93;3.72;;;;;;;;;;5076094;28;20027;-71
2022/08/04 03:55:09;;;;;;;5.22;3.72;;;;;;;;;;5076084;28;20051;-72
2022/08/04 03:58:10;;;;;;;9.32;3.40;;;;;;;;;;5076367;28;20028;-72
2022/08/04 04:01:09;;;;;;;8.02;3.60;;;;;;;;;;5075099;28;20432;-72
2022/08/04 04:03:57;;;;;;;9.95;3.58;;;;;;;;;;5076137;28;20058;-71
2022/08/04 04:07:09;;;;;;;5.60;3.10;;;;;;;;;;5076153;28;20027;-72
2022/08/04 04:10:02;;;;;;;5.68;3.58;;;;;;;;;;5075788;28;20032;-72
2022/08/04 04:12:50;;;;;;;6.72;4.10;;;;;;;;;;5075636;28;20099;-71
2022/08/04 04:15:42;;;;;;;6.22;3.83;;;;;;;;;;5076293;28;20025;-72
2022/08/04 04:18:37;;;;;;;5.70;3.85;;;;;;;;;;5076263;28;20016;-72
2022/08/04 04:21:31;;;;;;;6.57;3.75;;;;;;;;;;5076439;28;20390;-72
2022/08/04 04:24:01;;;;;;;3.60;2.90;;;;;;;;;;5076080;28;20056;-74
2022/08/04 04:26:45;;;;;;;7.60;3.72;;;;;;;;;;5057964;28;20032;-72
2022/08/04 04:29:11;;;;;;;4.18;2.92;;;;;;;;;;5075812;28;20036;-73
2022/08/04 04:31:52;;;;;;;4.13;2.92;;;;;;;;;;5075226;28;20016;-72
2022/08/04 04:34:39;;;;;;;5.60;3.00;;;;;;;;;;5075499;28;20025;-72
2022/08/04 04:37:42;;;;;;;6.57;3.00;;;;;;;;;;5075624;28;20107;-72
2022/08/04 04:40:47;;;;;;;5.75;2.80;;;;;;;;;;5075318;28;20031;-72
2022/08/04 04:43:31;;;;;;;5.32;2.78;;;;;;;;;;5009289;28;20051;-72
2022/08/04 04:46:09;;;;;;;3.85;2.30;;;;;;;;;;5074980;28;20016;-73
2022/08/04 04:48:57;;;;;;;6.55;2.58;;;;;;;;;;5075652;28;20086;-71
2022/08/04 04:51:32;;;;;;;5.90;2.80;;;;;;;;;;5073993;28;20411;-72
2022/08/04 04:54:12;;;;;;;7.90;2.78;;;;;;;;;;5056928;28;20078;-72
2022/08/04 04:56:47;;;;;;;5.53;2.67;;;;;;;;;;5074865;28;20432;-72
2022/08/04 04:59:15;;;;;;;10.13;3.35;;;;;;;;;;5074826;28;20043;-70
2022/08/04 05:02:08;;;;;;;3.42;2.50;;;;;;;;;;5075019;28;20020;-72
2022/08/04 05:05:01;;;;;;;6.68;2.92;;;;;;;;;;5075189;28;20031;-72
2022/08/04 05:07:51;;;;;;;7.85;2.22;;;;;;;;;;5075948;28;20039;-83
2022/08/04 05:10:45;;;;;;;3.42;2.63;;;;;;;;;;5078736;28;20101;-80
2022/08/04 05:13:36;;;;;;;3.30;2.50;;;;;;;;;;5079615;28;20080;-78
2022/08/04 05:16:29;;;;;;;4.38;2.45;;;;;;;;;;5081219;28;20045;-78
2022/08/04 05:19:26;;;;;;;3.75;2.55;;;;;;;;;;5063247;28;20047;-78
2022/08/04 05:22:21;;;;;;;3.30;2.28;;;;;;;;;;5081001;28;20020;-77
2022/08/04 05:24:50;;;;;;;10.13;2.50;;;;;;;;;;5079161;28;20082;-80
2022/08/04 05:27:20;;;;;;;8.60;2.40;;;;;;;;;;5079925;28;20116;-78
2022/08/04 05:29:56;;;;;;;5.45;2.38;;;;;;;;;;5080813;28;20021;-79
2022/08/04 05:32:29;;;;;;;6.50;2.60;;;;;;;;;;5080466;28;20452;-79
2022/08/04 05:35:01;;;;;;;6.93;2.65;;;;;;;;;;5082026;28;20032;-77
2022/08/04 05:37:29;;;;;;;6.18;2.67;;;;;;;;;;5081964;28;20025;-78
2022/08/04 05:40:04;;;;;;;4.00;2.60;;;;;;;;;;5081193;28;20024;-78
2022/08/04 05:42:31;;;;;;;10.63;2.70;;;;;;;;;;5080926;28;20084;-80
2022/08/04 05:44:58;;;;;;;6.78;2.55;;;;;;;;;;5080378;28;20390;-79
2022/08/04 05:47:24;;;;;;;8.43;2.80;;;;;;;;;;5079255;28;20034;-78
2022/08/04 05:49:50;;;;;;;4.97;2.40;;;;;;;;;;5078838;28;20020;-79
2022/08/04 05:52:17;;;;;;;7.45;2.63;;;;;;;;;;5078467;28;20045;-80
2022/08/04 05:54:44;;;;;;;3.88;2.25;;;;;;;;;;5078315;28;20111;-80
2022/08/04 05:57:10;;;;;;;7.47;2.40;;;;;;;;;;5060675;28;20508;-78
2022/08/04 05:59:41;;;;;;;7.50;2.80;;;;;;;;;;5078574;28;20039;-79
2022/08/04 06:02:08;;;;;;;5.90;2.90;;;;;;;;;;5077306;28;20482;-79
2022/08/04 06:04:37;;;;;;;5.55;3.33;;;;;;;;;;5079377;28;20044;-79
2022/08/04 06:07:03;;;;;;;7.05;2.35;;;;;;;;;;5078395;28;20396;-79
2022/08/04 06:09:29;;;;;;;5.03;2.42;;;;;;;;;;5078300;28;20116;-79
2022/08/04 06:11:57;;;;;;;6.10;2.55;;;;;;;;;;5078696;28;20108;-81
2022/08/04 06:14:23;;;;;;;3.63;2.40;;;;;;;;;;5079942;28;20020;-79
2022/08/04 06:16:49;;;;;;;4.88;2.35;;;;;;;;;;5079219;28;20043;-79
2022/08/04 06:19:17;;;;;;;4.78;2.75;;;;;;;;;;5080059;28;20028;-79
2022/08/04 06:21:47;;;;;;;7.30;2.47;;;;;;;;;;5079062;28;20027;-79
2022/08/04 06:24:16;;;;;;;9.95;2.63;;;;;;;;;;5079203;28;20024;-79
2022/08/04 06:26:43;;;;;;;6.05;2.50;;;;;;;;;;5079005;28;20020;-80
2022/08/04 06:29:18;;;;;;;6.65;2.60;;;;;;;;;;5080305;28;20030;-79
2022/08/04 06:31:57;;;;;;;7.50;2.60;;;;;;;;;;5080077;28;20032;-79
2022/08/04 06:34:24;;;;;;;3.25;2.60;;;;;;;;;;5079949;28;20021;-80
2022/08/04 06:36:50;;;;;;;4.53;2.50;;;;;;;;;;5079793;28;20020;-81
2022/08/04 06:39:15;;;;;;;3.30;2.42;;;;;;;;;;5077965;28;20065;-78
2022/08/04 06:41:42;;;;;;;9.82;2.90;;;;;;;;;;5077380;28;20090;-78
2022/08/04 06:44:10;;;;;;;4.47;2.67;;;;;;;;;;5076540;28;20035;-78
2022/08/04 06:46:39;;;;;;;7.65;2.67;;;;;;;;;;5077442;28;20032;-79
2022/08/04 06:49:04;;;;;;;7.57;3.00;;;;;;;;;;5077406;28;20036;-77
2022/08/04 06:51:32;;;;;;;8.40;3.78;;;;;;;;;;5058461;28;20016;-76
2022/08/04 06:53:58;;;;;;;7.65;2.65;;;;;;;;;;5076813;28;20028;-78
2022/08/04 06:56:24;;;;;;;5.75;2.60;;;;;;;;;;5076838;28;20112;-79
2022/08/04 06:58:52;;;;;;;3.78;2.38;;;;;;;;;;5076925;28;20035;-79
2022/08/04 07:01:19;;;;;;;6.32;2.60;;;;;;;;;;5076376;28;20025;-78
2022/08/04 07:03:45;;;;;;;12.02;2.28;;;;;;;;;;5077256;28;20048;-77
2022/08/04 07:06:11;;;;;;;4.60;2.38;;;;;;;;;;5077357;28;20035;-78
2022/08/04 07:08:36;;;;;;;4.97;2.38;;;;;;;;;;5077085;28;20090;-80
2022/08/04 07:11:02;;;;;;;6.40;2.67;;;;;;;;;;5075834;28;20029;-77
2022/08/04 07:13:30;;;;;;;12.15;2.60;;;;;;;;;;5076921;28;20027;-78
2022/08/04 07:15:58;;;;;;;6.15;2.42;;;;;;;;;;5078925;28;20024;-78
2022/08/04 07:18:23;;;;;;;3.95;2.53;;;;;;;;;;5077772;28;20067;-78
2022/08/04 07:20:49;;;;;;;6.13;2.40;;;;;;;;;;5077220;28;20056;-76
2022/08/04 07:23:20;;;;;;;5.15;2.25;;;;;;;;;;5077615;28;20028;-77
2022/08/04 07:25:54;;;;;;;5.97;2.50;;;;;;;;;;5078611;28;20020;-79
2022/08/04 07:28:21;;;;;;;4.72;2.20;;;;;;;;;;5078493;28;20081;-79
2022/08/04 07:30:51;;;;;;;3.67;2.25;;;;;;;;;;5078229;28;20024;-79
2022/08/04 07:33:17;;;;;;;4.53;2.53;;;;;;;;;;5077665;28;20039;-80
2022/08/04 07:35:43;;;;;;;2.67;2.30;;;;;;;;;;5077158;28;20366;-77
2022/08/04 07:38:10;;;;;;;3.80;2.53;;;;;;;;;;5077240;28;20021;-77
2022/08/04 07:40:36;;;;;;;7.80;2.85;;;;;;;;;;5077367;28;20033;-78
2022/08/04 07:43:02;;;;;;;5.18;2.35;;;;;;;;;;5078578;28;20029;-79
2022/08/04 07:45:27;;;;;;;10.05;2.60;;;;;;;;;;5077345;28;20024;-80
2022/08/04 07:47:53;;;;;;;3.25;2.28;;;;;;;;;;5077919;28;20037;-79
2022/08/04 07:50:19;;;;;;;6.25;2.65;;;;;;;;;;5060133;28;20021;-78
2022/08/04 07:52:44;;;;;;;4.03;2.35;;;;;;;;;;5077693;28;20024;-78
2022/08/04 07:55:11;;;;;;;4.25;2.40;;;;;;;;;;5078254;28;20024;-79
2022/08/04 07:57:36;;;;;;;4.75;2.67;;;;;;;;;;5077628;28;20081;-77
2022/08/04 08:00:04;;;;;;;2.72;2.40;;;;;;;;;;5077157;28;20119;-78
2022/08/04 08:02:30;;;;;;;7.25;2.53;;;;;;;;;;5076927;28;20031;-81
2022/08/04 08:04:56;;;;;;;8.82;3.85;;;;;;;;;;5060170;28;20021;-80
2022/08/04 08:07:21;;;;;;;5.20;2.38;;;;;;;;;;5078768;28;20025;-79
2022/08/04 08:09:47;;;;;;;2.95;2.40;;;;;;;;;;5037542;28;984093;-78
2022/08/04 08:12:12;;;;;;;11.82;2.30;;;;;;;;;;5077877;28;20103;-79
2022/08/04 08:14:38;;;;;;;5.22;2.47;;;;;;;;;;5078076;28;20037;-79
2022/08/04 08:17:05;;;;;;;3.38;2.30;;;;;;;;;;5077003;28;20074;-77
2022/08/04 08:19:31;;;;;;;8.38;2.55;;;;;;;;;;5077244;28;20032;-78
2022/08/04 08:21:57;;;;;;;2.80;2.20;;;;;;;;;;5078278;28;20028;-80
2022/08/04 08:24:23;;;;;;;6.93;2.33;;;;;;;;;;5078359;28;20035;-78
2022/08/04 08:26:48;;;;;;;3.40;2.23;;;;;;;;;;5078497;28;20028;-78
2022/08/04 08:29:16;;;;;;;8.02;2.35;;;;;;;;;;5078393;28;20603;-79
2022/08/04 08:31:42;;;;;;;5.47;2.10;;;;;;;;;;5078408;28;20016;-78
2022/08/04 08:34:10;;;;;;;3.80;2.15;;;;;;;;;;5077705;28;20066;-77
2022/08/04 08:36:45;;;;;;;3.40;2.30;;;;;;;;;;5076750;28;20028;-79
2022/08/04 08:39:49;;;;;;;4.65;2.00;;;;;;;;;;5077854;28;20115;-78
2022/08/04 08:42:46;;;;;;;4.30;2.10;;;;;;;;;;5075378;28;20048;-80
2022/08/04 08:45:53;;;;;;;7.90;2.50;;;;;;;;;;5024659;28;20509;-79
2022/08/04 08:48:43;;;;;;;6.75;2.28;;;;;;;;;;5079192;28;20025;-79
2022/08/04 08:51:39;;;;;;;2.75;2.15;;;;;;;;;;5078255;28;20523;-80
2022/08/04 08:54:31;;;;;;;6.03;2.10;;;;;;;;;;5076096;28;20024;-79
2022/08/04 08:57:11;;;;;;;2.42;2.00;;;;;;;;;;5077694;28;20024;-76
2022/08/04 09:00:00;;;;;;;5.15;2.25;;;;;;;;;;5077452;28;20447;-79
2022/08/04 09:02:53;;;;;;;7.63;2.13;;;;;;;;;;5077961;28;20032;-79
2022/08/04 09:05:53;;;;;;;2.25;1.90;;;;;;;;;;5077628;28;20024;-78
2022/08/04 09:08:25;;;;;;;16.25;2.30;;;;;;;;;;5078170;28;20032;-77
2022/08/04 09:10:58;;;;;;;4.40;1.88;;;;;;;;;;5077573;28;20025;-77
2022/08/04 09:13:39;;;;;;;;;;;;;;;;;;5062139;28;20394;-79
2022/08/04 09:16:17;;;;;;;4.88;2.22;;;;;;;;;;5060511;28;20338;-78
2022/08/04 09:19:05;;;;;;;4.20;1.92;;;;;;;;;;5078802;28;20020;-77
2022/08/04 09:21:40;;;;;;;4.65;1.98;;;;;;;;;;5059010;28;20048;-78
2022/08/04 09:24:24;;;;;;;1.90;1.77;;;;;;;;;;5076641;28;20029;-77
2022/08/04 09:26:55;;;;;;;3.13;1.90;;;;;;;;;;5076517;28;20025;-77
2022/08/04 09:29:46;;;;;;;2.78;1.80;;;;;;;;;;5077127;28;20050;-78
2022/08/04 09:32:20;;;;;;;3.67;1.60;;;;;;;;;;5076474;28;20028;-77
2022/08/04 09:35:00;;;;;;;2.65;1.60;;;;;;;;;;5075850;28;20078;-76
2022/08/04 09:37:39;;;;;;;3.63;1.90;;;;;;;;;;5075139;28;20032;-77
2022/08/04 09:40:17;;;;;;;4.30;1.70;;;;;;;;;;5057562;28;20032;-76
2022/08/04 09:43:04;;;;;;;3.45;1.65;;;;;;;;;;5076417;28;20393;-77
2022/08/04 09:45:57;;;;;;;4.80;1.83;;;;;;;;;;5075425;28;20083;-78
2022/08/04 09:48:38;;;;;;;7.38;2.13;;;;;;;;;;5075870;28;20077;-78
2022/08/04 09:51:15;;;;;;;2.92;1.67;;;;;;;;;;5076214;28;20052;-78
2022/08/04 09:54:27;;;;;;;3.10;1.50;;;;;;;;;;5075286;28;20028;-78
2022/08/04 09:57:03;;;;;;;2.50;1.70;;;;;;;;;;4995309;28;20508;-78
2022/08/04 09:59:57;;;;;;;3.05;1.80;;;;;;;;;;5071782;28;20413;-80
2022/08/04 10:02:24;;;;;;;4.57;1.80;;;;;;;;;;5076276;28;20048;-77
2022/08/04 10:04:52;;;;;;;2.22;1.65;;;;;;;;;;5075866;28;20029;-76
2022/08/04 10:07:26;;;;;;;3.17;1.77;;;;;;;;;;5057883;28;20039;-77
2022/08/04 10:10:19;;;;;;;2.00;1.70;;;;;;;;;;5075641;28;20079;-79
2022/08/04 10:13:22;;;;;;;5.18;1.50;;;;;;;;;;5038638;28;20032;-78
2022/08/04 10:15:59;;;;;;;2.45;2.03;;;;;;;;;;5075265;28;20073;-77
2022/08/04 10:18:56;;;;;;;4.18;1.75;;;;;;;;;;5075297;28;20431;-76
2022/08/04 10:21:43;;;;;;;2.38;2.00;;;;;;;;;;5075541;28;20025;-76
2022/08/04 10:24:31;;;;;;;2.90;1.88;;;;;;;;;;5056345;28;20032;-76
2022/08/04 10:27:03;;;;;;;5.72;1.70;;;;;;;;;;5074836;28;20029;-76
2022/08/04 10:29:41;;;;;;;3.58;1.75;;;;;;;;;;5074529;28;20052;-78
2022/08/04 10:32:28;;;;;;;2.15;1.70;;;;;;;;;;5074703;28;20016;-80
2022/08/04 10:35:17;;;;;;;3.72;1.80;;;;;;;;;;5056188;28;20088;-76
2022/08/04 10:38:19;;;;;;;5.57;1.65;;;;;;;;;;5074884;28;20058;-79
2022/08/04 10:41:18;;;;;;;3.40;1.50;;;;;;;;;;5075186;28;20012;-77
2022/08/04 10:44:14;;;;;;;3.80;2.10;;;;;;;;;;5080017;28;20079;-77
2022/08/04 10:46:48;;;;;;;1.90;1.58;;;;;;;;;;5077544;28;20021;-78
2022/08/04 10:49:18;;;;;;;2.90;1.80;;;;;;;;;;5057159;28;20024;-78
2022/08/04 10:51:51;;;;;;;2.35;1.70;;;;;;;;;;5075648;28;20066;-78
2022/08/04 10:54:29;;;;;;;1.83;1.60;;;;;;;;;;5076890;28;20028;-77
2022/08/04 10:57:02;;;;;;;5.28;1.90;;;;;;;;;;5076021;28;20102;-79
2022/08/04 10:59:37;;;;;;;2.85;1.80;;;;;;;;;;5075762;28;20393;-78
2022/08/04 11:02:48;;;;;;;2.67;1.90;;;;;;;;;;5076141;28;20039;-78
2022/08/04 11:05:26;;;;;;;2.85;1.60;;;;;;;;;;5013720;28;20064;-79
2022/08/04 11:07:58;;;;;;;2.42;1.70;;;;;;;;;;5057873;28;20025;-79
2022/08/04 11:10:27;;;;;;;5.38;1.83;;;;;;;;;;5077085;28;20032;-79
2022/08/04 11:12:58;;;;;;;4.43;1.70;;;;;;;;;;5057434;28;20103;-79
2022/08/04 11:15:34;;;;;;;9.90;1.90;;;;;;;;;;5075617;28;20075;-79
2022/08/04 11:18:07;;;;;;;4.50;1.85;;;;;;;;;;5075754;28;20035;-78
2022/08/04 11:20:45;;;;;;;2.03;1.83;;;;;;;;;;5057927;28;20405;-78
2022/08/04 11:23:16;;;;;;;1.70;1.60;;;;;;;;;;5075254;28;20025;-79
2022/08/04 11:25:51;;;;;;;3.42;1.63;;;;;;;;;;5075711;28;20024;-78
2022/08/04 11:28:23;;;;;;;3.63;1.77;;;;;;;;;;5058662;28;20043;-77
2022/08/04 11:31:05;;;;;;;2.17;1.83;;;;;;;;;;5075441;28;20363;-79
2022/08/04 11:33:36;;;;;;;4.93;1.70;;;;;;;;;;5075779;28;20017;-80
2022/08/04 11:36:19;;;;;;;4.95;1.75;;;;;;;;;;5075188;28;20060;-78
2022/08/04 11:39:03;;;;;;;4.90;1.77;;;;;;;;;;5075359;28;20110;-77
2022/08/04 11:41:51;;;;;;;1.90;1.70;;;;;;;;;;5057312;28;20058;-78
2022/08/04 11:44:30;;;;;;;2.47;2.00;;;;;;;;;;5056757;28;20500;-78
2022/08/04 11:47:03;;;;;;;2.17;1.98;;;;;;;;;;5056021;28;20032;-77
2022/08/04 11:49:37;;;;;;;2.22;1.83;;;;;;;;;;5074574;28;20162;-78
2022/08/04 11:52:04;;;;;;;5.13;1.90;;;;;;;;;;5075030;28;20478;-77
2022/08/04 11:54:31;;;;;;;6.18;1.75;;;;;;;;;;5074366;28;20036;-77
2022/08/04 11:56:57;;;;;;;2.10;1.67;;;;;;;;;;5074738;28;20389;-77
2022/08/04 11:59:24;;;;;;;4.32;1.80;;;;;;;;;;5057518;28;20048;-77
2022/08/04 12:02:00;;;;;;;3.88;1.90;;;;;;;;;;5078891;28;20107;-77
2022/08/04 12:04:54;;;;;;;2.50;1.70;;;;;;;;;;5061135;28;20090;-77
2022/08/04 12:07:30;;;;;;;5.70;1.77;;;;;;;;;;5059975;28;20090;-77
2022/08/04 12:10:12;;;;;;;2.83;2.03;;;;;;;;;;5078719;28;20116;-77
2022/08/04 12:12:46;;;;;;;3.08;1.90;;;;;;;;;;5078189;28;20027;-77
2022/08/04 12:15:36;;;;;;;2.53;1.83;;;;;;;;;;5077904;28;20026;-78
2022/08/04 12:18:12;;;;;;;4.10;1.80;;;;;;;;;;5078217;28;20025;-79
2022/08/04 12:20:57;;;;;;;4.25;1.90;;;;;;;;;;5078746;28;20071;-79
2022/08/04 12:23:34;;;;;;;2.67;1.83;;;;;;;;;;5059828;28;20070;-77
2022/08/04 12:26:05;;;;;;;3.20;2.00;;;;;;;;;;5078136;28;20027;-77
2022/08/04 12:28:42;;;;;;;7.18;2.13;;;;;;;;;;5078075;28;20078;-78
2022/08/04 12:31:18;;;;;;;2.67;1.92;;;;;;;;;;5077470;28;20021;-78
2022/08/04 12:33:53;;;;;;;2.60;1.85;;;;;;;;;;5062169;28;20028;-80
2022/08/04 12:36:23;;;;;;;3.30;1.95;;;;;;;;;;5084250;28;20024;-80
2022/08/04 12:39:07;;;;;;;2.85;2.10;;;;;;;;;;5080474;28;20482;-77
2022/08/04 12:41:37;;;;;;;2.60;1.90;;;;;;;;;;5078269;28;20032;-76
2022/08/04 12:44:05;;;;;;;4.13;1.95;;;;;;;;;;5078235;28;20043;-77
2022/08/04 12:46:32;;;;;;;3.50;1.90;;;;;;;;;;5059661;28;20154;-79
2022/08/04 12:49:01;;;;;;;5.13;1.90;;;;;;;;;;5060317;28;20469;-78
2022/08/04 12:51:27;;;;;;;3.75;2.10;;;;;;;;;;5077744;28;20037;-79
2022/08/04 12:53:55;;;;;;;5.32;2.08;;;;;;;;;;5060167;28;20028;-77
2022/08/04 12:56:26;;;;;;;5.95;2.28;;;;;;;;;;5076586;28;20078;-78
2022/08/04 12:58:58;;;;;;;2.00;1.80;;;;;;;;;;5077565;28;20021;-78
2022/08/04 13:01:25;;;;;;;6.35;2.10;;;;;;;;;;5076725;28;20494;-80
2022/08/04 13:04:00;;;;;;;5.63;2.10;;;;;;;;;;5076979;28;20036;-77
2022/08/04 13:06:33;;;;;;;3.63;2.08;;;;;;;;;;5059350;28;20044;-76
2022/08/04 13:09:05;;;;;;;4.70;2.05;;;;;;;;;;5066510;28;20031;-77
2022/08/04 13:11:37;;;;;;;3.97;2.05;;;;;;;;;;5096293;28;20081;-77
2022/08/04 13:14:04;;;;;;;4.40;2.13;;;;;;;;;;5098283;28;20099;-79
2022/08/04 13:16:31;;;;;;;3.95;2.30;;;;;;;;;;5096789;28;20028;-78
2022/08/04 13:18:57;;;;;;;4.28;2.00;;;;;;;;;;5079123;28;20477;-78
2022/08/04 13:21:25;;;;;;;3.03;2.00;;;;;;;;;;5078785;28;20043;-79
2022/08/04 13:23:57;;;;;;;4.90;1.92;;;;;;;;;;5078191;28;20026;-78
2022/08/04 13:26:23;;;;;;;5.28;2.22;;;;;;;;;;5096714;28;20031;-78
2022/08/04 13:28:51;;;;;;;4.05;1.95;;;;;;;;;;5079473;28;20028;-79
2022/08/04 13:31:20;;;;;;;5.57;1.98;;;;;;;;;;5098416;28;20107;-79
2022/08/04 13:33:48;;;;;;;3.47;2.15;;;;;;;;;;5078799;28;20031;-78
2022/08/04 13:36:16;;;;;;;5.00;2.00;;;;;;;;;;5097578;28;20381;-78
2022/08/04 13:39:06;;;;;;;5.22;2.13;;;;;;;;;;5097435;28;20020;-78
2022/08/04 13:41:34;;;;;;;2.42;1.75;;;;;;;;;;5079158;28;20020;-81
2022/08/04 13:44:02;;;;;;;4.63;2.10;;;;;;;;;;5079439;28;20024;-79
2022/08/04 13:46:28;;;;;;;3.22;2.00;;;;;;;;;;5096981;28;20104;-78
2022/08/04 13:48:59;;;;;;;3.22;2.17;;;;;;;;;;5096845;28;20113;-78
2022/08/04 13:51:26;;;;;;;4.70;2.10;;;;;;;;;;5095949;28;20023;-78
2022/08/04 13:53:57;;;;;;;5.00;1.95;;;;;;;;;;5077875;28;20024;-78
2022/08/04 13:56:27;;;;;;;6.97;2.28;;;;;;;;;;5096827;28;20024;-77
2022/08/04 13:58:55;;;;;;;2.65;1.98;;;;;;;;;;5096350;28;20024;-78
2022/08/04 14:01:25;;;;;;;2.72;2.00;;;;;;;;;;5077782;28;20119;-78
2022/08/04 14:03:58;;;;;;;6.68;2.20;;;;;;;;;;5096091;28;20020;-78
2022/08/04 14:06:33;;;;;;;4.68;1.98;;;;;;;;;;5096362;28;20055;-78
2022/08/04 14:09:21;;;;;;;3.78;2.10;;;;;;;;;;5087572;28;20040;-78
2022/08/04 14:11:52;;;;;;;5.60;2.03;;;;;;;;;;5075574;28;20029;-78
2022/08/04 14:14:21;;;;;;;6.78;2.20;;;;;;;;;;5076273;28;20038;-78
2022/08/04 14:17:12;;;;;;;4.03;2.05;;;;;;;;;;5076186;28;20026;-79
2022/08/04 14:20:00;;;;;;;5.38;2.20;;;;;;;;;;5057822;28;20081;-79
2022/08/04 14:22:25;;;;;;;3.53;2.10;;;;;;;;;;5075282;28;20056;-77
2022/08/04 14:25:12;;;;;;;2.70;1.90;;;;;;;;;;5057636;28;20035;-77
2022/08/04 14:27:55;;;;;;;3.08;1.70;;;;;;;;;;5075592;28;20078;-79
2022/08/04 14:30:29;;;;;;;6.00;2.30;;;;;;;;;;5057403;28;20048;-77
2022/08/04 14:33:08;;;;;;;4.65;1.85;;;;;;;;;;5056965;28;20035;-78
2022/08/04 14:35:37;;;;;;;3.53;2.28;;;;;;;;;;5075202;28;20025;-77
2022/08/04 14:38:08;;;;;;;3.97;2.22;;;;;;;;;;5056867;28;20149;-77
2022/08/04 14:40:36;;;;;;;4.95;1.95;;;;;;;;;;5075523;28;20025;-78
2022/08/04 14:43:02;;;;;;;4.25;2.05;;;;;;;;;;5075406;28;20025;-79
2022/08/04 14:45:36;;;;;;;4.05;2.10;;;;;;;;;;5057317;28;20028;-78
2022/08/04 14:48:07;;;;;;;4.07;2.17;;;;;;;;;;5076452;28;20074;-79
2022/08/04 14:50:37;;;;;;;5.78;2.08;;;;;;;;;;5076901;28;20030;-78
2022/08/04 14:53:12;;;;;;;3.33;2.00;;;;;;;;;;5075205;28;20025;-78
2022/08/04 14:55:41;;;;;;;4.30;2.30;;;;;;;;;;5075284;28;20098;-77
2022/08/04 14:58:06;;;;;;;6.70;2.20;;;;;;;;;;5075084;28;20029;-79
2022/08/04 15:00:34;;;;;;;5.30;2.28;;;;;;;;;;5057230;28;20017;-77
2022/08/04 15:03:03;;;;;;;5.63;2.22;;;;;;;;;;5074557;28;20029;-79
2022/08/04 15:05:29;;;;;;;12.07;2.22;;;;;;;;;;5076175;28;20029;-80
2022/08/04 15:07:55;;;;;;;3.90;2.00;;;;;;;;;;5075502;28;20049;-78
2022/08/04 15:10:21;;;;;;;5.15;2.35;;;;;;;;;;5074790;28;20024;-78
2022/08/04 15:12:46;;;;;;;6.03;2.30;;;;;;;;;;5073637;28;20393;-77
2022/08/04 15:15:12;;;;;;;4.28;2.33;;;;;;;;;;5075315;28;20024;-79
2022/08/04 15:17:39;;;;;;;4.15;2.00;;;;;;;;;;5074348;28;20036;-76
2022/08/04 15:20:06;;;;;;;8.30;2.53;;;;;;;;;;5075317;28;20039;-78
2022/08/04 15:22:31;;;;;;;3.35;2.10;;;;;;;;;;5074822;28;20025;-80
2022/08/04 15:24:56;;;;;;;10.07;2.30;;;;;;;;;;5074970;28;20021;-78
2022/08/04 15:27:29;;;;;;;5.50;2.17;;;;;;;;;;5074393;28;20021;-77
2022/08/04 15:29:59;;;;;;;4.10;2.28;;;;;;;;;;5074806;28;20136;-78
2022/08/04 15:32:25;;;;;;;2.83;2.00;;;;;;;;;;5074664;28;20074;-78
2022/08/04 15:34:51;;;;;;;3.95;2.00;;;;;;;;;;5076421;28;20017;-79
2022/08/04 15:37:25;;;;;;;2.50;2.03;;;;;;;;;;5077768;28;20374;-79
2022/08/04 15:39:59;;;;;;;3.50;2.05;;;;;;;;;;5078915;28;20052;-79
2022/08/04 15:42:30;;;;;;;3.10;2.08;;;;;;;;;;5079097;28;20032;-78